Time;durP1;ratioP1;P1;durP2;ratioP2;P2;SDS_P1;SDS_P2;PMS_P1;PMS_P2;Temp;Humidity;BMP_temperature;BMP_pressure;BME280_temperature;BME280_humidity;BME280_pressure;Samples;Min_cycle;Max_cycle;Signal;HPM_P1;HPM_P2
2023/08/20 00:02:59;;;;;;;4.47;4.07;;;;;;;25.77;68.04;100481.56;10319367;28;20042;-43
2023/08/20 00:08:00;;;;;;;4.55;4.15;;;;;;;25.79;68.12;100483.25;10336120;28;20054;-44
2023/08/20 00:13:02;;;;;;;5.38;4.50;;;;;;;25.68;68.40;100460.25;10336206;28;20065;-45
2023/08/20 00:18:04;;;;;;;5.05;4.50;;;;;;;25.73;68.58;100480.38;10332629;28;20060;-45
2023/08/20 00:23:06;;;;;;;4.10;3.77;;;;;;;25.71;68.93;100487.91;10339207;28;20050;-44
2023/08/20 00:28:07;;;;;;;5.00;4.50;;;;;;;25.71;69.62;100501.53;10335691;28;20071;-43
2023/08/20 00:33:09;;;;;;;4.40;4.00;;;;;;;25.68;70.06;100493.78;10337521;28;20060;-44
2023/08/20 00:38:11;;;;;;;4.03;3.53;;;;;;;25.67;69.64;100483.09;10334235;28;20872;-44
2023/08/20 00:43:12;;;;;;;6.20;4.60;;;;;;;25.65;70.22;100488.78;10336303;28;20190;-43
2023/08/20 00:48:15;;;;;;;5.05;4.55;;;;;;;25.62;71.27;100497.38;10336697;28;20056;-44
2023/08/20 00:53:17;;;;;;;6.80;4.68;;;;;;;25.59;70.97;100484.19;10336685;28;20646;-44
2023/08/20 00:58:19;;;;;;;5.22;4.68;;;;;;;25.58;71.51;100493.41;10334195;28;20062;-43
2023/08/20 01:03:20;;;;;;;4.68;4.15;;;;;;;25.57;72.15;100486.31;10332365;28;20053;-44
2023/08/20 01:08:25;;;;;;;5.07;4.20;;;;;;;25.54;72.51;100484.03;10332262;28;20057;-43
2023/08/20 01:13:26;;;;;;;6.75;4.97;;;;;;;25.51;72.59;100477.13;10343523;28;20053;-43
2023/08/20 01:18:28;;;;;;;5.75;5.20;;;;;;;25.48;72.67;100471.28;10339855;28;20072;-45
2023/08/20 01:23:48;;;;;;;5.28;4.78;;;;;;;25.45;73.00;100480.72;10341314;28;20594;-44
2023/08/20 01:28:50;;;;;;;6.07;5.05;;;;;;;25.41;74.16;100483.00;10342626;28;20053;-43
2023/08/20 01:33:52;;;;;;;6.55;4.65;;;;;;;25.38;75.50;100488.06;10348124;28;20310;-44
2023/08/20 01:38:56;;;;;;;5.78;5.28;;;;;;;25.34;74.41;100495.00;10342010;28;20522;-43
2023/08/20 01:43:58;;;;;;;5.55;5.05;;;;;;;25.31;74.22;100493.56;10345147;28;20064;-49
2023/08/20 01:48:59;;;;;;;5.07;4.68;;;;;;;25.28;74.00;100488.50;10341770;28;20729;-43
2023/08/20 01:54:01;;;;;;;6.47;5.00;;;;;;;25.27;74.41;100484.09;10348408;28;20541;-43
2023/08/20 01:59:03;;;;;;;5.68;5.18;;;;;;;25.21;74.89;100487.69;10344419;28;20144;-43
2023/08/20 02:04:05;;;;;;;6.07;5.43;;;;;;;25.17;75.35;100483.72;10344951;28;20061;-44
2023/08/20 02:09:06;;;;;;;6.35;4.30;;;;;;;25.14;75.12;100492.31;10344407;28;20054;-45
2023/08/20 02:14:08;;;;;;;6.68;4.78;;;;;;;25.08;75.95;100494.00;10347415;28;20044;-43
2023/08/20 02:19:09;;;;;;;4.88;4.53;;;;;;;25.01;75.32;100499.47;10347359;28;20053;-43
2023/08/20 02:24:11;;;;;;;6.32;4.88;;;;;;;24.97;75.59;100494.66;10347936;28;20049;-43
2023/08/20 02:29:13;;;;;;;7.82;5.15;;;;;;;24.98;76.46;100496.31;10337576;28;20259;-44
2023/08/20 02:34:14;;;;;;;5.88;5.20;;;;;;;24.96;75.66;100507.41;10326505;28;20136;-47
2023/08/20 02:39:16;;;;;;;5.25;4.57;;;;;;;24.92;76.26;100499.91;10345379;28;20041;-44
2023/08/20 02:44:18;;;;;;;6.30;5.32;;;;;;;24.91;75.53;100493.63;10344089;28;20060;-44
2023/08/20 02:49:20;;;;;;;6.90;4.85;;;;;;;24.88;76.30;100499.50;10344133;28;20053;-44
2023/08/20 02:54:21;;;;;;;11.45;5.78;;;;;;;24.85;77.28;100491.75;10342507;28;20130;-46
2023/08/20 02:59:23;;;;;;;6.60;6.03;;;;;;;24.82;77.12;100501.16;10345877;28;20058;-44
2023/08/20 03:04:24;;;;;;;6.65;5.32;;;;;;;24.78;77.48;100491.75;10348327;28;20049;-44
2023/08/20 03:09:26;;;;;;;8.07;5.53;;;;;;;24.74;78.06;100493.25;10343028;28;20080;-43
2023/08/20 03:14:27;;;;;;;6.93;6.32;;;;;;;24.70;78.20;100476.47;10342273;28;20526;-44
2023/08/20 03:19:36;;;;;;;11.57;6.25;;;;;;;24.67;79.55;100487.78;10342020;28;20529;-44
2023/08/20 03:24:38;;;;;;;6.75;5.95;;;;;;;24.60;78.88;100470.63;10344219;28;20084;-44
2023/08/20 03:29:40;;;;;;;6.78;5.88;;;;;;;24.54;79.06;100485.03;10342751;28;20569;-44
2023/08/20 03:34:41;;;;;;;6.75;6.07;;;;;;;24.52;79.53;100484.44;10342688;28;20129;-43
2023/08/20 03:39:42;;;;;;;7.15;5.88;;;;;;;24.51;79.51;100482.75;10345741;28;20056;-43
2023/08/20 03:44:44;;;;;;;6.88;5.53;;;;;;;24.49;79.75;100487.56;10343489;28;20127;-43
2023/08/20 03:49:50;;;;;;;7.72;6.05;;;;;;;24.51;79.92;100497.16;10330744;28;20541;-44
2023/08/20 03:54:52;;;;;;;6.20;5.70;;;;;;;24.51;80.03;100493.63;10345399;28;20045;-44
2023/08/20 03:59:53;;;;;;;6.20;5.60;;;;;;;24.48;80.07;100488.59;10338922;28;20045;-44
2023/08/20 04:04:57;;;;;;;6.18;5.57;;;;;;;24.46;80.66;100502.41;10341553;28;20054;-43
2023/08/20 04:09:59;;;;;;;7.60;6.63;;;;;;;24.46;80.08;100512.47;10324646;28;20172;-44
2023/08/20 04:15:00;;;;;;;6.95;6.30;;;;;;;24.43;80.31;100523.78;10338017;28;20697;-44
2023/08/20 04:20:05;;;;;;;8.82;6.15;;;;;;;24.38;80.37;100526.25;10342820;28;20052;-44
2023/08/20 04:25:07;;;;;;;7.38;6.03;;;;;;;24.37;81.40;100530.06;10341990;28;20533;-44
2023/08/20 04:30:09;;;;;;;6.47;5.80;;;;;;;24.35;81.19;100522.94;10328051;28;20054;-44
2023/08/20 04:35:11;;;;;;;6.33;5.73;;;;;;;24.30;80.64;100521.88;10345815;28;20057;-44
2023/08/20 04:40:12;;;;;;;8.98;6.13;;;;;;;24.32;82.47;100522.47;10344199;28;20135;-44
2023/08/20 04:45:19;;;;;;;7.65;6.90;;;;;;;24.34;81.99;100525.84;10347004;28;20061;-44
2023/08/20 04:50:20;;;;;;;7.80;6.43;;;;;;;24.34;82.35;100521.25;10345290;28;20141;-44
2023/08/20 04:55:22;;;;;;;7.45;6.25;;;;;;;24.29;82.66;100531.91;10348525;28;20069;-44
2023/08/20 05:00:24;;;;;;;8.15;5.97;;;;;;;24.32;82.06;100536.09;10332285;28;20108;-44
2023/08/20 05:05:26;;;;;;;7.55;6.85;;;;;;;24.30;82.60;100536.28;10344373;28;20806;-44
2023/08/20 05:10:27;;;;;;;8.00;6.22;;;;;;;24.33;81.98;100552.19;10313928;28;20065;-44
2023/08/20 05:15:28;;;;;;;6.70;5.97;;;;;;;24.32;81.93;100550.53;10341133;28;20124;-45
2023/08/20 05:20:30;;;;;;;8.57;6.88;;;;;;;24.31;82.42;100548.84;10345573;28;20042;-45
2023/08/20 05:25:31;;;;;;;7.28;6.68;;;;;;;24.24;83.09;100558.88;10341764;28;20061;-45
2023/08/20 05:30:34;;;;;;;7.53;6.50;;;;;;;24.22;83.39;100555.53;10340528;28;20065;-45
2023/08/20 05:35:35;;;;;;;8.07;7.28;;;;;;;24.33;82.37;100568.53;10346157;28;20076;-49
2023/08/20 05:40:37;;;;;;;8.60;7.75;;;;;;;24.32;83.18;100561.44;10345487;28;20041;-45
2023/08/20 05:45:39;;;;;;;8.77;7.28;;;;;;;24.32;82.69;100569.59;10347728;28;20115;-45
2023/08/20 05:50:40;;;;;;;9.00;8.10;;;;;;;24.28;83.64;100579.19;10342269;28;20053;-45
2023/08/20 05:55:41;;;;;;;7.45;6.85;;;;;;;24.35;83.18;100576.50;10348321;28;20184;-45
2023/08/20 06:00:43;;;;;;;8.93;6.90;;;;;;;24.49;83.73;100586.34;10350825;28;20057;-45
2023/08/20 06:05:44;;;;;;;8.40;7.20;;;;;;;24.58;82.90;100592.47;10348509;28;20053;-45
2023/08/20 06:10:46;;;;;;;8.50;7.60;;;;;;;24.61;81.90;100591.22;10334953;28;20069;-45
2023/08/20 06:15:47;;;;;;;8.90;7.30;;;;;;;24.56;82.97;100583.66;10342786;28;20064;-45
2023/08/20 06:20:49;;;;;;;8.52;7.82;;;;;;;24.66;81.79;100589.53;10336554;28;20053;-46
2023/08/20 06:25:51;;;;;;;8.15;7.35;;;;;;;24.75;81.50;100602.94;10338976;28;21153;-45
2023/08/20 06:30:52;;;;;;;6.68;6.15;;;;;;;24.81;81.53;100605.66;10333145;28;20061;-45
2023/08/20 06:35:56;;;;;;;7.55;6.80;;;;;;;24.89;81.51;100599.16;10343235;28;20053;-45
2023/08/20 06:40:58;;;;;;;7.40;6.75;;;;;;;25.03;80.11;100622.63;10344045;28;20051;-44
2023/08/20 06:45:59;;;;;;;6.93;6.38;;;;;;;25.05;79.71;100620.50;10345494;28;20068;-44
2023/08/20 06:51:17;;;;;;;6.85;6.25;;;;;;;25.11;79.42;100627.00;10345393;28;20136;-44
2023/08/20 06:56:19;;;;;;;7.30;6.60;;;;;;;25.26;78.98;100623.25;10342439;28;20490;-45
2023/08/20 07:01:20;;;;;;;7.30;6.53;;;;;;;25.37;79.02;100618.03;10337317;28;20053;-45
2023/08/20 07:06:22;;;;;;;7.80;6.22;;;;;;;25.54;78.44;100631.19;10338469;28;20054;-53
2023/08/20 07:11:23;;;;;;;6.95;6.25;;;;;;;25.64;76.93;100634.31;10322571;28;20115;-53
2023/08/20 07:16:25;;;;;;;7.03;6.25;;;;;;;25.78;74.77;100635.09;10335135;28;20057;-52
2023/08/20 07:21:26;;;;;;;6.03;5.53;;;;;;;25.64;76.11;100617.97;10315348;28;20056;-52
2023/08/20 07:26:29;;;;;;;7.53;6.88;;;;;;;25.89;76.12;100636.31;10335798;28;21205;-52
2023/08/20 07:31:32;;;;;;;;;;;;;;;26.17;75.33;100643.38;10314959;28;20510;-52
2023/08/20 07:36:35;;;;;;;7.28;6.60;;;;;;;26.05;74.23;100635.03;10323795;28;19948;-52
2023/08/20 07:41:37;;;;;;;6.93;6.13;;;;;;;26.21;74.24;100644.59;10333754;28;20057;-52
2023/08/20 07:46:38;;;;;;;8.07;7.22;;;;;;;26.40;73.81;100649.09;10335883;28;20056;-53
2023/08/20 07:51:40;;;;;;;7.22;6.50;;;;;;;26.41;73.04;100650.78;10314084;28;20050;-54
2023/08/20 07:56:41;;;;;;;7.20;6.50;;;;;;;26.39;72.43;100644.72;10332321;28;20589;-52
2023/08/20 08:01:43;;;;;;;8.35;7.38;;;;;;;26.58;72.14;100628.44;10334285;28;20057;-54
2023/08/20 08:06:44;;;;;;;7.25;6.65;;;;;;;26.61;71.77;100641.63;10333762;28;20049;-53
2023/08/20 08:11:46;;;;;;;6.93;6.32;;;;;;;26.71;72.55;100638.44;10317949;28;20058;-55
2023/08/20 08:16:48;;;;;;;7.33;6.63;;;;;;;26.95;71.80;100647.72;10333424;28;20072;-55
2023/08/20 08:21:50;;;;;;;9.32;7.18;;;;;;;27.13;70.61;100645.06;10329759;28;20081;-54
2023/08/20 08:26:51;;;;;;;8.80;7.67;;;;;;;27.36;70.06;100645.50;10319719;28;20513;-53
2023/08/20 08:31:53;;;;;;;10.48;8.00;;;;;;;27.50;69.43;100653.34;10318509;28;20049;-53
2023/08/20 08:36:54;;;;;;;8.43;7.65;;;;;;;27.37;69.03;100664.41;10330762;28;20046;-53
2023/08/20 08:42:02;;;;;;;7.40;6.80;;;;;;;27.51;69.48;100655.00;10330526;28;20050;-53
2023/08/20 08:47:05;;;;;;;8.50;7.60;;;;;;;27.85;68.73;100665.59;10331941;28;20053;-54
2023/08/20 08:52:07;;;;;;;;;;;;;;;28.03;67.78;100662.06;10335161;28;20049;-54
2023/08/20 08:57:09;;;;;;;10.23;8.18;;;;;;;28.14;67.64;100658.53;10334257;28;19935;-53
2023/08/20 09:02:12;;;;;;;7.82;7.03;;;;;;;28.35;66.65;100667.31;10331707;28;20978;-53
2023/08/20 09:07:15;;;;;;;9.02;8.25;;;;;;;28.48;66.19;100655.31;10334115;28;20056;-54
2023/08/20 09:12:18;;;;;;;9.43;8.40;;;;;;;28.73;65.86;100649.72;10334559;28;20050;-53
2023/08/20 09:17:20;;;;;;;9.25;8.35;;;;;;;28.92;64.62;100643.09;10334905;28;20130;-53
2023/08/20 09:22:22;;;;;;;8.63;7.80;;;;;;;28.92;64.37;100632.13;10330152;28;20204;-53
2023/08/20 09:27:24;;;;;;;9.93;9.07;;;;;;;29.07;62.32;100639.06;10316115;28;20053;-54
2023/08/20 09:32:27;;;;;;;9.77;8.68;;;;;;;29.03;63.74;100619.50;10336482;28;20057;-54
2023/08/20 09:37:28;;;;;;;8.23;7.43;;;;;;;29.50;61.81;100643.41;10326175;28;20049;-55
2023/08/20 09:42:32;;;;;;;8.80;8.00;;;;;;;29.70;61.43;100625.72;10340709;28;20491;-54
2023/08/20 09:47:37;;;;;;;8.18;7.32;;;;;;;29.94;59.96;100641.06;10339212;28;20061;-52
2023/08/20 09:52:42;;;;;;;8.18;7.45;;;;;;;30.03;56.57;100635.22;10338180;28;20076;-54
2023/08/20 09:57:45;;;;;;;8.25;7.43;;;;;;;30.06;58.72;100640.19;10343008;28;20151;-54
2023/08/20 10:02:49;;;;;;;8.60;7.85;;;;;;;30.16;57.51;100640.38;10337905;28;20171;-53
2023/08/20 10:07:51;;;;;;;8.68;7.70;;;;;;;30.37;57.09;100629.78;10335693;28;20057;-52
2023/08/20 10:12:52;;;;;;;8.13;7.53;;;;;;;30.68;55.54;100637.53;10333329;28;20068;-53
2023/08/20 10:17:57;;;;;;;8.57;7.38;;;;;;;30.79;55.20;100621.22;10336332;28;20417;-55
2023/08/20 10:23:03;;;;;;;7.70;7.00;;;;;;;31.02;54.16;100645.00;10334362;28;20417;-54
2023/08/20 10:28:22;;;;;;;8.07;7.28;;;;;;;31.43;51.40;100629.09;10333272;28;20128;-55
2023/08/20 10:33:23;;;;;;;9.48;8.57;;;;;;;31.84;52.53;100642.59;10336899;28;20046;-55
2023/08/20 10:38:25;;;;;;;6.53;5.63;;;;;;;31.93;50.56;100641.06;10329121;28;20057;-55
2023/08/20 10:43:35;;;;;;;8.05;7.25;;;;;;;32.00;50.60;100625.19;10335409;28;20052;-55
2023/08/20 10:48:39;;;;;;;7.20;6.50;;;;;;;32.22;49.18;100635.38;10326063;28;20568;-56
2023/08/20 10:53:43;;;;;;;5.63;5.10;;;;;;;32.45;48.68;100631.47;10308202;28;20064;-55
2023/08/20 10:58:46;;;;;;;6.07;5.10;;;;;;;32.55;46.71;100611.47;10316548;28;20061;-55
2023/08/20 11:03:50;;;;;;;6.05;5.53;;;;;;;32.85;45.91;100621.94;10324780;28;20049;-55
2023/08/20 11:08:51;;;;;;;5.53;5.03;;;;;;;32.81;45.53;100619.97;10313164;28;20114;-56
2023/08/20 11:13:53;;;;;;;5.75;5.30;;;;;;;33.07;45.45;100612.72;10315221;28;20413;-55
2023/08/20 11:18:54;;;;;;;5.72;5.20;;;;;;;33.24;43.27;100616.19;10320125;28;20065;-55
2023/08/20 11:23:57;;;;;;;;;;;;;;;33.50;41.21;100623.78;10301647;28;20058;-55
2023/08/20 11:28:58;;;;;;;5.25;4.85;;;;;;;33.80;42.34;100623.94;10321231;28;20207;-54
2023/08/20 11:34:02;;;;;;;3.92;3.63;;;;;;;33.64;42.33;100619.41;10312393;28;20134;-55
2023/08/20 11:39:03;;;;;;;5.03;4.22;;;;;;;33.89;41.17;100615.97;10315747;28;20160;-56
2023/08/20 11:44:05;;;;;;;4.28;3.55;;;;;;;34.20;40.42;100612.44;10327412;28;20651;-56
2023/08/20 11:49:08;;;;;;;5.60;4.25;;;;;;;34.44;40.65;100604.50;10327122;28;20989;-56
2023/08/20 11:54:13;;;;;;;4.30;3.90;;;;;;;34.62;39.26;100616.94;10328985;28;20049;-56
2023/08/20 11:59:16;;;;;;;3.97;3.67;;;;;;;34.75;39.36;100610.88;10328382;28;20056;-56
2023/08/20 12:04:18;;;;;;;4.28;3.88;;;;;;;34.64;40.22;100604.53;10321379;28;20057;-55
2023/08/20 12:09:21;;;;;;;7.03;4.43;;;;;;;34.74;40.07;100597.31;10324700;28;20091;-58
2023/08/20 12:14:24;;;;;;;5.18;4.30;;;;;;;34.63;40.14;100602.03;10321403;28;20053;-56
2023/08/20 12:19:25;;;;;;;5.38;4.88;;;;;;;34.75;40.64;100588.75;10321816;28;20132;-55
2023/08/20 12:24:27;;;;;;;5.18;4.05;;;;;;;35.04;39.74;100593.72;10301069;28;20050;-56
2023/08/20 12:29:29;;;;;;;4.40;3.88;;;;;;;35.01;38.46;100588.75;10320156;28;20634;-56
2023/08/20 12:34:30;;;;;;;7.63;4.43;;;;;;;35.10;38.15;100586.25;10327678;28;20068;-56
2023/08/20 12:39:32;;;;;;;3.83;3.08;;;;;;;34.92;36.64;100565.53;10327723;28;20057;-55
2023/08/20 12:44:34;;;;;;;4.60;3.40;;;;;;;34.83;37.83;100573.56;10314784;28;20582;-56
2023/08/20 12:49:35;;;;;;;3.35;2.90;;;;;;;34.83;37.48;100573.56;10324458;28;20100;-58
2023/08/20 12:54:37;;;;;;;3.85;2.95;;;;;;;34.95;36.46;100567.75;10320612;28;20065;-57
2023/08/20 12:59:38;;;;;;;2.35;1.70;;;;;;;34.94;32.97;100558.63;10325370;28;21654;-56
2023/08/20 13:04:40;;;;;;;2.55;1.42;;;;;;;34.90;32.73;100562.25;10313038;28;20060;-57
2023/08/20 13:09:45;;;;;;;4.95;1.80;;;;;;;34.95;34.04;100562.22;10332317;28;20160;-56
2023/08/20 13:14:46;;;;;;;4.00;2.67;;;;;;;34.78;34.44;100557.00;10335019;28;20156;-57
2023/08/20 13:19:48;;;;;;;5.05;2.58;;;;;;;34.65;35.19;100555.59;10325073;28;20057;-56
2023/08/20 13:24:49;;;;;;;3.13;2.47;;;;;;;34.46;35.87;100541.53;10315183;28;20061;-56
2023/08/20 13:29:50;;;;;;;5.32;4.75;;;;;;;34.47;35.81;100549.53;10318977;28;20198;-56
2023/08/20 13:34:52;;;;;;;4.85;3.55;;;;;;;34.42;37.12;100548.69;10307390;28;20665;-56
2023/08/20 13:39:53;;;;;;;4.07;2.80;;;;;;;34.36;37.33;100553.38;10328900;28;20064;-56
2023/08/20 13:44:55;;;;;;;4.65;2.83;;;;;;;34.27;37.06;100544.81;10324846;28;20045;-56
2023/08/20 13:49:57;;;;;;;3.70;3.00;;;;;;;34.07;35.85;100545.59;10334723;28;20107;-57
2023/08/20 13:54:58;;;;;;;3.47;2.15;;;;;;;33.90;37.04;100540.34;10333788;28;20228;-55
2023/08/20 14:00:00;;;;;;;4.20;3.13;;;;;;;33.83;37.94;100539.75;10334649;28;20755;-56
2023/08/20 14:05:04;;;;;;;4.25;3.10;;;;;;;33.73;38.06;100548.00;10338500;28;20060;-56
2023/08/20 14:10:06;;;;;;;5.10;2.83;;;;;;;33.59;38.85;100528.34;10334120;28;20056;-56
2023/08/20 14:15:08;;;;;;;3.05;2.70;;;;;;;33.44;38.40;100516.13;10334812;28;20158;-57
2023/08/20 14:20:11;;;;;;;3.50;3.03;;;;;;;33.43;39.20;100524.69;10334022;28;20054;-57
2023/08/20 14:25:13;;;;;;;3.30;3.00;;;;;;;33.25;38.89;100524.09;10333393;28;21235;-56
2023/08/20 14:30:15;;;;;;;4.82;3.10;;;;;;;33.20;39.52;100525.97;10330620;28;20091;-56
2023/08/20 14:35:16;;;;;;;;;;;;;;;33.15;38.90;100514.88;10331934;28;20238;-56
2023/08/20 14:40:17;;;;;;;2.60;2.30;;;;;;;33.06;39.78;100515.41;10329432;28;19976;-56
2023/08/20 14:45:19;;;;;;;;;;;;;;;32.98;39.30;100515.06;10334650;28;20084;-54
2023/08/20 14:50:21;;;;;;;3.97;3.58;;;;;;;32.78;40.46;100498.13;10329237;28;19941;-54
2023/08/20 14:55:22;;;;;;;5.20;3.70;;;;;;;32.73;40.80;100506.38;10325329;28;20057;-55
2023/08/20 15:00:24;;;;;;;3.83;3.15;;;;;;;32.65;41.54;100509.59;10311217;28;20058;-55
2023/08/20 15:05:26;;;;;;;4.07;3.65;;;;;;;32.55;41.61;100498.50;10310077;28;20061;-55
2023/08/20 15:10:28;;;;;;;4.47;4.07;;;;;;;32.45;41.71;100493.75;10323421;28;20102;-55
2023/08/20 15:15:30;;;;;;;5.88;3.40;;;;;;;32.38;42.20;100488.47;10334305;28;20674;-55
2023/08/20 15:20:32;;;;;;;3.88;3.50;;;;;;;32.37;42.48;100486.81;10328085;28;20053;-55
2023/08/20 15:25:33;;;;;;;3.80;3.45;;;;;;;32.33;42.33;100485.66;10332195;28;20053;-55
2023/08/20 15:30:35;;;;;;;4.22;3.65;;;;;;;32.20;42.72;100475.09;10327630;28;20061;-54
2023/08/20 15:35:36;;;;;;;4.20;3.70;;;;;;;32.21;43.35;100483.09;10333343;28;20526;-55
2023/08/20 15:40:38;;;;;;;4.97;3.95;;;;;;;32.18;43.29;100480.03;10326274;28;20056;-55
2023/08/20 15:45:40;;;;;;;;;;;;;;;32.17;43.08;100494.88;10308863;28;20057;-62
2023/08/20 15:50:41;;;;;;;6.23;4.10;;;;;;;32.08;43.42;100481.59;10327284;28;19960;-56
2023/08/20 15:55:42;;;;;;;6.60;4.78;;;;;;;32.05;44.00;100484.88;10325180;28;20110;-54
2023/08/20 16:00:44;;;;;;;;;;;;;;;32.03;43.72;100495.28;10322810;28;20264;-56
2023/08/20 16:05:45;;;;;;;4.40;4.00;;;;;;;31.94;43.86;100483.09;10320418;28;19929;-55
2023/08/20 16:10:47;;;;;;;5.75;4.80;;;;;;;31.90;44.50;100481.94;10325223;28;20049;-55
2023/08/20 16:15:49;;;;;;;4.72;4.32;;;;;;;31.87;44.88;100480.56;10321356;28;20192;-55
2023/08/20 16:20:50;;;;;;;5.75;3.75;;;;;;;31.79;45.01;100474.69;10320014;28;20103;-55
2023/08/20 16:25:52;;;;;;;4.70;4.20;;;;;;;31.77;44.58;100476.84;10325478;28;20128;-57
2023/08/20 16:30:53;;;;;;;7.82;4.32;;;;;;;31.72;45.08;100481.25;10320367;28;21155;-59
2023/08/20 16:35:54;;;;;;;4.80;3.65;;;;;;;31.68;45.22;100479.25;10319919;28;20065;-55
2023/08/20 16:40:59;;;;;;;4.88;4.05;;;;;;;31.64;45.49;100478.94;10306932;28;20108;-55
2023/08/20 16:46:01;;;;;;;5.50;4.18;;;;;;;31.63;45.74;100480.03;10308030;28;20143;-55
2023/08/20 16:51:02;;;;;;;5.55;4.20;;;;;;;31.59;45.45;100486.28;10321845;28;20119;-55
2023/08/20 16:56:04;;;;;;;;;;;;;;;31.52;45.66;100480.97;10321129;28;20057;-56
2023/08/20 17:01:05;;;;;;;5.37;4.23;;;;;;;31.48;45.62;100479.81;10322615;28;19935;-55
2023/08/20 17:06:07;;;;;;;4.95;4.53;;;;;;;31.47;46.01;100478.19;10303247;28;20174;-55
2023/08/20 17:11:10;;;;;;;6.43;4.10;;;;;;;31.44;46.28;100473.19;10323368;28;20498;-55
2023/08/20 17:16:12;;;;;;;5.15;4.63;;;;;;;31.36;46.37;100472.56;10317453;28;20061;-56
2023/08/20 17:21:14;;;;;;;;;;;;;;;31.29;46.73;100469.16;10320346;28;20600;-54
2023/08/20 17:26:15;;;;;;;4.73;4.27;;;;;;;31.17;47.07;100462.97;10321810;28;21151;-54
2023/08/20 17:31:17;;;;;;;4.90;4.13;;;;;;;31.15;47.06;100470.63;10323236;28;20340;-57
2023/08/20 17:36:18;;;;;;;4.85;4.35;;;;;;;31.02;47.09;100461.66;10321050;28;20085;-57
2023/08/20 17:41:20;;;;;;;5.53;4.20;;;;;;;30.91;47.90;100470.84;10321793;28;20138;-58
2023/08/20 17:46:21;;;;;;;5.38;4.80;;;;;;;30.90;47.90;100469.19;10320720;28;20148;-57
2023/08/20 17:51:23;;;;;;;4.75;4.10;;;;;;;30.79;47.90;100459.97;10306321;28;20103;-56
2023/08/20 17:56:24;;;;;;;5.83;4.50;;;;;;;30.76;48.25;100465.13;10330973;28;20146;-57
2023/08/20 18:01:26;;;;;;;5.15;4.53;;;;;;;30.67;48.30;100470.22;10331236;28;20061;-57
2023/08/20 18:06:28;;;;;;;;;;;;;;;30.63;48.68;100475.38;10330280;28;20486;-57
2023/08/20 18:11:29;;;;;;;4.35;3.95;;;;;;;30.55;48.81;100477.72;10328064;28;20122;-56
2023/08/20 18:16:31;;;;;;;4.40;4.00;;;;;;;30.42;49.30;100476.97;10326175;28;20150;-57
2023/08/20 18:21:33;;;;;;;7.10;4.70;;;;;;;30.45;49.27;100492.13;10331732;28;20045;-58
2023/08/20 18:26:35;;;;;;;4.40;4.00;;;;;;;30.39;49.76;100501.34;10329319;28;20288;-55
2023/08/20 18:31:36;;;;;;;4.30;3.88;;;;;;;30.24;49.78;100493.69;10324477;28;20049;-57
2023/08/20 18:36:37;;;;;;;4.90;4.47;;;;;;;30.23;49.78;100505.75;10329320;28;20502;-57
2023/08/20 18:41:39;;;;;;;5.30;4.80;;;;;;;30.14;49.88;100510.78;10326525;28;20707;-57
2023/08/20 18:46:40;;;;;;;6.67;4.80;;;;;;;30.04;49.93;100505.97;10314193;28;20342;-57
2023/08/20 18:51:42;;;;;;;5.17;4.50;;;;;;;29.92;50.37;100524.38;10313786;28;20466;-57
2023/08/20 18:56:43;;;;;;;4.78;4.20;;;;;;;29.89;50.25;100527.63;10316798;28;20064;-58
2023/08/20 19:01:45;;;;;;;4.20;3.65;;;;;;;29.65;50.76;100513.13;10318792;28;20115;-57
2023/08/20 19:06:51;;;;;;;4.20;3.85;;;;;;;29.73;50.58;100543.75;10323642;28;20041;-57
2023/08/20 19:11:55;;;;;;;5.45;3.90;;;;;;;29.66;50.58;100553.22;10310899;28;20466;-57
2023/08/20 19:16:57;;;;;;;5.60;3.40;;;;;;;29.54;50.76;100539.53;10327358;28;20061;-58
2023/08/20 19:21:59;;;;;;;4.50;3.42;;;;;;;29.55;50.85;100561.22;10322341;28;20057;-57
2023/08/20 19:27:00;;;;;;;4.80;3.00;;;;;;;29.50;51.20;100557.53;10314445;28;20050;-57
2023/08/20 19:32:02;;;;;;;5.50;3.90;;;;;;;29.36;50.96;100555.06;10324623;28;20242;-57
2023/08/20 19:37:03;;;;;;;5.80;4.43;;;;;;;29.29;51.08;100569.97;10330833;28;20050;-57
2023/08/20 19:42:07;;;;;;;3.65;3.35;;;;;;;29.19;51.65;100560.41;10329665;28;20502;-57
2023/08/20 19:47:09;;;;;;;3.88;3.40;;;;;;;29.20;51.54;100562.09;10330391;28;20497;-57
2023/08/20 19:52:10;;;;;;;5.53;3.70;;;;;;;29.16;51.47;100571.88;10322077;28;20922;-60
2023/08/20 19:57:12;;;;;;;3.70;3.07;;;;;;;29.06;51.21;100577.09;10325819;28;20049;-57
2023/08/20 20:02:13;;;;;;;5.47;3.10;;;;;;;28.94;51.53;100573.53;10321904;28;20061;-60
2023/08/20 20:07:16;;;;;;;3.67;3.38;;;;;;;28.93;52.42;100583.69;10325520;28;20077;-57
2023/08/20 20:12:23;;;;;;;5.30;3.40;;;;;;;28.86;53.49;100586.50;10322512;28;20136;-57
2023/08/20 20:17:25;;;;;;;4.23;3.87;;;;;;;28.82;53.65;100589.97;10324390;28;21516;-57
2023/08/20 20:22:27;;;;;;;4.40;3.40;;;;;;;28.71;53.98;100591.63;10318235;28;20049;-58
2023/08/20 20:27:29;;;;;;;5.10;3.47;;;;;;;28.59;53.76;100593.47;10328411;28;20057;-57
2023/08/20 20:32:32;;;;;;;;;;;;;;;28.56;54.52;100600.25;10324831;28;20072;-57
2023/08/20 20:37:33;;;;;;;;;;;;;;;28.44;54.54;100608.44;10320795;28;19935;-57
2023/08/20 20:42:36;;;;;;;5.20;3.80;;;;;;;28.38;55.35;100610.19;10322601;28;19929;-57
2023/08/20 20:47:38;;;;;;;6.60;4.72;;;;;;;28.37;55.17;100613.16;10322623;28;20196;-57
2023/08/20 20:52:42;;;;;;;5.15;4.50;;;;;;;28.25;55.60;100615.84;10313447;28;20057;-60
2023/08/20 20:57:44;;;;;;;4.18;3.83;;;;;;;28.25;55.63;100620.50;10326777;28;20119;-57
2023/08/20 21:02:46;;;;;;;6.77;3.50;;;;;;;28.24;55.83;100614.22;10319814;28;20077;-56
2023/08/20 21:07:48;;;;;;;6.43;3.95;;;;;;;28.07;56.16;100614.00;10313318;28;20057;-57
2023/08/20 21:12:49;;;;;;;4.00;3.33;;;;;;;28.05;55.94;100616.13;10312433;28;20152;-56
2023/08/20 21:17:51;;;;;;;4.97;3.67;;;;;;;27.98;55.92;100621.72;10307886;28;20204;-57
2023/08/20 21:22:54;;;;;;;11.13;7.00;;;;;;;27.90;54.83;100624.72;10327578;28;20050;-44
2023/08/20 21:27:55;;;;;;;6.88;4.82;;;;;;;27.91;54.68;100625.53;10336678;28;20439;-45
2023/08/20 21:32:57;;;;;;;3.83;3.50;;;;;;;27.85;55.75;100633.59;10340841;28;20702;-45
2023/08/20 21:37:58;;;;;;;4.10;3.40;;;;;;;27.79;56.52;100628.19;10347441;28;20108;-46
2023/08/20 21:43:00;;;;;;;4.82;3.15;;;;;;;27.58;57.09;100632.22;10344954;28;20140;-45
2023/08/20 21:48:01;;;;;;;4.78;4.00;;;;;;;27.52;58.24;100632.09;10331546;28;20049;-45
2023/08/20 21:53:03;;;;;;;3.58;3.28;;;;;;;27.51;57.93;100633.13;10347996;28;20816;-45
2023/08/20 21:58:04;;;;;;;3.77;3.47;;;;;;;27.43;58.49;100632.59;10342487;28;20054;-46
2023/08/20 22:03:06;;;;;;;5.20;4.28;;;;;;;27.25;59.19;100633.38;10345082;28;20057;-48
2023/08/20 22:08:08;;;;;;;5.03;4.47;;;;;;;27.22;60.30;100639.28;10344565;28;20049;-45
2023/08/20 22:13:09;;;;;;;4.80;4.35;;;;;;;27.17;60.03;100638.09;10346061;28;20056;-45
2023/08/20 22:18:10;;;;;;;5.97;4.40;;;;;;;27.16;60.77;100633.66;10344386;28;20049;-45
2023/08/20 22:23:13;;;;;;;5.78;4.38;;;;;;;27.15;60.76;100640.19;10344463;28;20057;-46
2023/08/20 22:28:15;;;;;;;5.38;4.88;;;;;;;27.11;61.26;100633.53;10347600;28;20057;-45
2023/08/20 22:33:17;;;;;;;4.88;4.47;;;;;;;27.11;61.12;100638.97;10343128;28;20054;-49
2023/08/20 22:38:18;;;;;;;6.35;5.75;;;;;;;27.06;61.88;100641.53;10344058;28;20143;-46
2023/08/20 22:43:20;;;;;;;5.65;5.15;;;;;;;27.02;62.11;100648.50;10346089;28;20759;-45
2023/08/20 22:48:21;;;;;;;5.67;5.17;;;;;;;26.96;63.45;100646.66;10348140;28;20265;-45
2023/08/20 22:53:23;;;;;;;5.80;5.30;;;;;;;26.83;62.34;100631.22;10327645;28;20054;-50
2023/08/20 22:58:24;;;;;;;5.80;5.30;;;;;;;26.85;63.02;100647.41;10344713;28;20053;-45
2023/08/20 23:03:26;;;;;;;7.05;6.40;;;;;;;26.83;63.49;100646.75;10347232;28;20065;-46
2023/08/20 23:08:27;;;;;;;6.47;5.88;;;;;;;26.65;64.08;100648.34;10343736;28;20820;-48
2023/08/20 23:13:29;;;;;;;6.40;5.88;;;;;;;26.67;63.60;100640.78;10347634;28;20702;-46